Time;durP1;ratioP1;P1;durP2;ratioP2;P2;SDS_P1;SDS_P2;PMS_P1;PMS_P2;Temp;Humidity;BMP_temperature;BMP_pressure;BME280_temperature;BME280_humidity;BME280_pressure;Samples;Min_cycle;Max_cycle;Signal;HPM_P1;HPM_P2
2022/01/01 00:02:22;;;;;;;41.27;22.00;;;;;;;;;;5047348;28;20033;-78
2022/01/01 00:04:48;;;;;;;34.97;18.73;;;;;;;;;;5049315;28;20536;-78
2022/01/01 00:07:16;;;;;;;31.20;17.80;;;;;;;;;;5050627;28;20029;-78
2022/01/01 00:09:43;;;;;;;31.03;16.40;;;;;;;;;;5049494;28;20032;-75
2022/01/01 00:12:09;;;;;;;24.70;13.83;;;;;;;;;;5048547;28;20033;-77
2022/01/01 00:14:36;;;;;;;20.43;12.77;;;;;;;;;;5048433;28;20017;-80
2022/01/01 00:17:01;;;;;;;21.85;12.02;;;;;;;;;;5049558;28;20060;-79
2022/01/01 00:19:27;;;;;;;21.03;11.50;;;;;;;;;;5047718;28;20388;-77
2022/01/01 00:21:52;;;;;;;22.03;12.10;;;;;;;;;;5049777;28;20025;-78
2022/01/01 00:24:18;;;;;;;13.30;8.30;;;;;;;;;;5047455;28;20033;-79
2022/01/01 00:26:43;;;;;;;13.03;7.87;;;;;;;;;;5047523;28;20551;-78
2022/01/01 00:29:09;;;;;;;10.90;6.90;;;;;;;;;;5049766;28;20035;-77
2022/01/01 00:31:34;;;;;;;9.52;5.82;;;;;;;;;;5048804;28;20113;-77
2022/01/01 00:34:00;;;;;;;11.57;6.43;;;;;;;;;;5047131;28;20388;-78
2022/01/01 00:36:31;;;;;;;9.70;5.45;;;;;;;;;;5048838;28;20481;-77
2022/01/01 00:38:58;;;;;;;10.63;5.97;;;;;;;;;;5047187;28;20029;-77
2022/01/01 00:41:24;;;;;;;15.93;7.25;;;;;;;;;;5048380;28;20116;-77
2022/01/01 00:43:50;;;;;;;13.48;7.88;;;;;;;;;;5048947;28;20108;-78
2022/01/01 00:46:16;;;;;;;15.60;7.82;;;;;;;;;;5049227;28;20031;-80
2022/01/01 00:48:41;;;;;;;14.30;8.38;;;;;;;;;;5047913;28;20714;-77
2022/01/01 00:51:07;;;;;;;20.75;8.80;;;;;;;;;;5049573;28;20028;-78
2022/01/01 00:53:32;;;;;;;16.75;7.90;;;;;;;;;;5048665;28;20388;-77
2022/01/01 00:55:58;;;;;;;13.30;7.32;;;;;;;;;;5049836;28;20424;-79
2022/01/01 00:58:24;;;;;;;10.07;6.38;;;;;;;;;;5050208;28;20032;-77
2022/01/01 01:00:50;;;;;;;11.63;5.55;;;;;;;;;;5050408;28;20087;-79
2022/01/01 01:03:16;;;;;;;9.73;4.93;;;;;;;;;;5049670;28;20028;-78
2022/01/01 01:05:45;;;;;;;5.65;3.80;;;;;;;;;;5049588;28;20044;-78
2022/01/01 01:08:13;;;;;;;8.50;4.25;;;;;;;;;;5046218;28;20024;-78
2022/01/01 01:10:39;;;;;;;6.78;3.40;;;;;;;;;;5045889;28;20052;-78
2022/01/01 01:13:06;;;;;;;8.65;3.67;;;;;;;;;;5049119;28;20104;-77
2022/01/01 01:15:32;;;;;;;6.13;2.88;;;;;;;;;;5046183;28;20053;-76
2022/01/01 01:17:58;;;;;;;6.50;3.60;;;;;;;;;;5049233;28;20043;-78
2022/01/01 01:20:27;;;;;;;7.03;2.80;;;;;;;;;;5046646;28;20393;-78
2022/01/01 01:22:53;;;;;;;10.38;3.22;;;;;;;;;;5047554;28;20033;-78
2022/01/01 01:25:21;;;;;;;9.35;3.08;;;;;;;;;;5047793;28;20021;-79
2022/01/01 01:27:48;;;;;;;4.82;3.20;;;;;;;;;;5030968;28;20043;-78
2022/01/01 01:30:15;;;;;;;5.45;3.63;;;;;;;;;;5048613;28;20027;-77
2022/01/01 01:32:42;;;;;;;4.78;3.00;;;;;;;;;;5047278;28;20028;-77
2022/01/01 01:35:08;;;;;;;5.50;2.72;;;;;;;;;;5047855;28;20052;-77
2022/01/01 01:37:34;;;;;;;3.95;3.05;;;;;;;;;;5048766;28;20036;-77
2022/01/01 01:40:00;;;;;;;8.07;3.10;;;;;;;;;;5049123;28;20021;-76
2022/01/01 01:42:27;;;;;;;6.97;3.33;;;;;;;;;;5049086;28;20025;-77
2022/01/01 01:44:54;;;;;;;7.40;3.25;;;;;;;;;;5048184;28;20116;-77
2022/01/01 01:47:28;;;;;;;7.88;3.42;;;;;;;;;;5049332;28;20527;-79
2022/01/01 01:49:55;;;;;;;7.93;2.80;;;;;;;;;;5049066;28;20037;-77
2022/01/01 01:52:21;;;;;;;6.22;3.08;;;;;;;;;;5046735;28;20064;-77
2022/01/01 01:54:47;;;;;;;8.68;3.45;;;;;;;;;;5047919;28;20528;-78
2022/01/01 01:57:13;;;;;;;5.90;3.42;;;;;;;;;;5047476;28;20507;-76
2022/01/01 01:59:43;;;;;;;5.13;2.75;;;;;;;;;;5047397;28;20119;-79
2022/01/01 02:02:08;;;;;;;5.97;2.92;;;;;;;;;;5048596;28;20028;-78
2022/01/01 02:04:34;;;;;;;7.38;3.17;;;;;;;;;;5046249;28;20377;-79
2022/01/01 02:07:01;;;;;;;6.13;3.05;;;;;;;;;;5047022;28;20032;-76
2022/01/01 02:09:27;;;;;;;5.57;3.05;;;;;;;;;;5048769;28;20493;-78
2022/01/01 02:11:58;;;;;;;9.30;3.97;;;;;;;;;;5048893;28;20035;-76
2022/01/01 02:14:35;;;;;;;7.65;3.40;;;;;;;;;;5047010;28;20021;-76
2022/01/01 02:19:28;;;;;;;11.27;3.90;;;;;;;;;;5048195;28;20461;-80
2022/01/01 02:21:58;;;;;;;3.55;2.75;;;;;;;;;;5048801;28;20110;-77
2022/01/01 02:24:25;;;;;;;5.82;3.45;;;;;;;;;;5047921;28;20036;-77
2022/01/01 02:26:51;;;;;;;7.45;2.72;;;;;;;;;;5047221;28;20039;-78
2022/01/01 02:29:17;;;;;;;8.15;3.10;;;;;;;;;;5047290;28;20100;-75
2022/01/01 02:31:43;;;;;;;6.07;3.45;;;;;;;;;;5048903;28;20113;-76
2022/01/01 02:34:10;;;;;;;6.40;3.13;;;;;;;;;;5047763;28;20155;-78
2022/01/01 02:36:37;;;;;;;5.20;3.20;;;;;;;;;;5047728;28;20439;-77
2022/01/01 02:39:20;;;;;;;6.00;3.03;;;;;;;;;;5047573;28;20037;-78
2022/01/01 02:41:48;;;;;;;6.18;3.60;;;;;;;;;;5048851;28;20032;-78
2022/01/01 02:44:15;;;;;;;5.63;3.60;;;;;;;;;;5049207;28;20358;-74
2022/01/01 02:46:40;;;;;;;6.95;3.40;;;;;;;;;;5050763;28;20028;-76
2022/01/01 02:49:06;;;;;;;7.55;3.20;;;;;;;;;;5051675;28;20029;-78
2022/01/01 02:51:34;;;;;;;8.07;3.50;;;;;;;;;;5052219;28;20040;-76
2022/01/01 02:54:00;;;;;;;4.97;3.03;;;;;;;;;;5056729;28;20069;-78
2022/01/01 02:56:26;;;;;;;6.93;3.50;;;;;;;;;;5066711;28;20076;-77
2022/01/01 02:58:52;;;;;;;6.35;3.78;;;;;;;;;;5068811;28;20041;-76
2022/01/01 03:01:18;;;;;;;5.18;3.13;;;;;;;;;;5060414;28;20037;-78
2022/01/01 03:03:44;;;;;;;6.03;3.53;;;;;;;;;;5050700;28;20032;-77
2022/01/01 03:06:10;;;;;;;8.63;4.45;;;;;;;;;;5051475;28;20036;-77
2022/01/01 03:08:36;;;;;;;9.90;3.63;;;;;;;;;;5050223;28;20035;-76
2022/01/01 03:11:02;;;;;;;7.05;3.55;;;;;;;;;;5051049;28;20044;-78
2022/01/01 03:13:29;;;;;;;11.45;3.95;;;;;;;;;;5051041;28;20209;-78
2022/01/01 03:15:55;;;;;;;5.80;3.65;;;;;;;;;;5049606;28;20036;-77
2022/01/01 03:18:21;;;;;;;6.38;3.30;;;;;;;;;;5051118;28;20124;-78
2022/01/01 03:20:46;;;;;;;8.25;3.78;;;;;;;;;;5049318;28;20115;-78
2022/01/01 03:23:12;;;;;;;7.13;3.72;;;;;;;;;;5049753;28;20085;-74
2022/01/01 03:25:37;;;;;;;7.28;3.28;;;;;;;;;;5049840;28;20029;-74
2022/01/01 03:28:04;;;;;;;8.35;3.60;;;;;;;;;;5049562;28;20032;-74
2022/01/01 03:30:29;;;;;;;10.02;4.07;;;;;;;;;;5049374;28;20507;-75
2022/01/01 03:32:55;;;;;;;5.50;3.38;;;;;;;;;;5048934;28;20060;-74
2022/01/01 03:35:20;;;;;;;11.68;3.80;;;;;;;;;;5049357;28;20048;-75
2022/01/01 03:37:47;;;;;;;7.15;3.63;;;;;;;;;;5051157;28;20051;-74
2022/01/01 03:40:13;;;;;;;10.60;3.78;;;;;;;;;;5049743;28;20033;-75
2022/01/01 03:42:38;;;;;;;6.07;3.60;;;;;;;;;;5050291;28;20465;-74
2022/01/01 03:45:06;;;;;;;7.05;3.35;;;;;;;;;;5050337;28;20029;-74
2022/01/01 03:47:32;;;;;;;6.95;3.10;;;;;;;;;;5049534;28;20029;-74
2022/01/01 03:49:57;;;;;;;4.82;2.85;;;;;;;;;;5050420;28;20047;-74
2022/01/01 03:52:23;;;;;;;5.32;3.05;;;;;;;;;;5050769;28;20527;-75
2022/01/01 03:54:49;;;;;;;6.00;3.28;;;;;;;;;;5048741;28;20066;-74
2022/01/01 03:57:14;;;;;;;4.32;2.78;;;;;;;;;;5050115;28;20036;-74
2022/01/01 03:59:40;;;;;;;7.20;2.90;;;;;;;;;;5048678;28;20025;-74
2022/01/01 04:02:05;;;;;;;5.78;3.33;;;;;;;;;;5050169;28;20469;-74
2022/01/01 04:04:31;;;;;;;4.47;2.60;;;;;;;;;;5048118;28;20064;-73
2022/01/01 04:06:57;;;;;;;4.00;2.67;;;;;;;;;;5049850;28;20029;-74
2022/01/01 04:09:23;;;;;;;3.53;2.50;;;;;;;;;;5047180;28;20116;-73
2022/01/01 04:11:51;;;;;;;6.03;2.65;;;;;;;;;;5048795;28;20127;-73
2022/01/01 04:14:17;;;;;;;6.68;2.90;;;;;;;;;;5049516;28;20408;-74
2022/01/01 04:16:43;;;;;;;3.70;2.22;;;;;;;;;;5048328;28;20041;-74
2022/01/01 04:19:09;;;;;;;4.25;2.42;;;;;;;;;;5050409;28;20115;-76
2022/01/01 04:21:35;;;;;;;6.20;3.20;;;;;;;;;;5048628;28;20060;-75
2022/01/01 04:24:02;;;;;;;7.88;3.35;;;;;;;;;;5049882;28;20074;-74
2022/01/01 04:26:29;;;;;;;4.70;3.00;;;;;;;;;;5049729;28;20071;-78
2022/01/01 04:28:55;;;;;;;4.28;2.88;;;;;;;;;;5049229;28;20036;-73
2022/01/01 04:31:20;;;;;;;4.90;3.20;;;;;;;;;;5049667;28;20112;-74
2022/01/01 04:33:46;;;;;;;7.55;2.92;;;;;;;;;;5048550;28;20123;-74
2022/01/01 04:36:12;;;;;;;5.97;3.25;;;;;;;;;;5046559;28;20096;-74
2022/01/01 04:38:40;;;;;;;4.78;2.70;;;;;;;;;;5051167;28;20514;-74
2022/01/01 04:41:15;;;;;;;5.63;2.78;;;;;;;;;;5048512;28;20131;-74
2022/01/01 04:43:42;;;;;;;4.88;2.65;;;;;;;;;;5049239;28;20091;-74
2022/01/01 04:46:08;;;;;;;5.35;2.75;;;;;;;;;;5047932;28;20481;-74
2022/01/01 04:48:37;;;;;;;3.83;2.50;;;;;;;;;;5049099;28;20100;-74
2022/01/01 04:51:07;;;;;;;5.18;3.00;;;;;;;;;;5047796;28;20033;-74
2022/01/01 04:53:34;;;;;;;4.93;2.53;;;;;;;;;;5047300;28;20043;-74
2022/01/01 04:56:06;;;;;;;5.68;2.63;;;;;;;;;;5047530;28;20033;-74
2022/01/01 04:58:31;;;;;;;4.55;2.70;;;;;;;;;;5047746;28;20032;-74
2022/01/01 05:00:57;;;;;;;4.53;2.97;;;;;;;;;;5048031;28;20120;-74
2022/01/01 05:03:22;;;;;;;4.30;2.65;;;;;;;;;;5048824;28;20056;-74
2022/01/01 05:05:48;;;;;;;4.28;2.78;;;;;;;;;;5048746;28;20029;-74
2022/01/01 05:08:13;;;;;;;5.40;2.40;;;;;;;;;;5048658;28;20516;-75
2022/01/01 05:10:39;;;;;;;4.63;2.70;;;;;;;;;;5047598;28;20037;-73
2022/01/01 05:13:04;;;;;;;2.40;2.10;;;;;;;;;;5044447;28;20028;-75
2022/01/01 05:15:30;;;;;;;4.70;2.58;;;;;;;;;;5044615;28;20366;-74
2022/01/01 05:17:55;;;;;;;5.38;2.90;;;;;;;;;;5049120;28;20116;-74
2022/01/01 05:20:21;;;;;;;3.08;2.35;;;;;;;;;;5049205;28;20372;-74
2022/01/01 05:22:46;;;;;;;4.82;2.65;;;;;;;;;;5048760;28;20045;-74
2022/01/01 05:25:12;;;;;;;5.53;2.80;;;;;;;;;;5046731;28;20090;-74
2022/01/01 05:27:38;;;;;;;4.57;2.70;;;;;;;;;;5047237;28;20378;-74
2022/01/01 05:30:07;;;;;;;3.15;2.63;;;;;;;;;;5050072;28;20469;-74
2022/01/01 05:32:33;;;;;;;3.63;2.67;;;;;;;;;;5049094;28;20480;-75
2022/01/01 05:34:58;;;;;;;4.72;2.78;;;;;;;;;;5048062;28;20021;-74
2022/01/01 05:37:24;;;;;;;4.32;2.75;;;;;;;;;;5048303;28;20037;-73
2022/01/01 05:39:50;;;;;;;5.63;3.05;;;;;;;;;;5048684;28;20031;-74
2022/01/01 05:42:15;;;;;;;4.70;3.10;;;;;;;;;;5047115;28;20508;-74
2022/01/01 05:44:41;;;;;;;3.53;2.70;;;;;;;;;;5048095;28;20514;-74
2022/01/01 05:47:06;;;;;;;5.45;2.47;;;;;;;;;;5048876;28;20546;-74
2022/01/01 05:49:32;;;;;;;3.72;2.47;;;;;;;;;;5047551;28;20480;-75
2022/01/01 05:51:57;;;;;;;3.70;2.45;;;;;;;;;;5047398;28;20068;-74
2022/01/01 05:54:23;;;;;;;8.90;2.90;;;;;;;;;;5046913;28;20071;-74
2022/01/01 05:56:48;;;;;;;2.88;2.60;;;;;;;;;;5046690;28;20513;-73
2022/01/01 05:59:14;;;;;;;4.55;3.03;;;;;;;;;;5047110;28;20473;-75
2022/01/01 06:01:39;;;;;;;5.15;2.75;;;;;;;;;;5048483;28;20079;-76
2022/01/01 06:04:05;;;;;;;8.57;2.88;;;;;;;;;;5046408;28;20418;-75
2022/01/01 06:06:31;;;;;;;3.42;2.58;;;;;;;;;;5042835;28;20504;-75
2022/01/01 06:08:56;;;;;;;3.72;2.90;;;;;;;;;;5048215;28;20037;-75
2022/01/01 06:11:22;;;;;;;4.93;2.83;;;;;;;;;;5048628;28;20440;-74
2022/01/01 06:13:47;;;;;;;5.85;2.78;;;;;;;;;;5046632;28;20475;-74
2022/01/01 06:16:12;;;;;;;4.82;2.80;;;;;;;;;;5047654;28;20032;-74
2022/01/01 06:18:38;;;;;;;3.88;2.60;;;;;;;;;;5048385;28;20029;-74
2022/01/01 06:21:04;;;;;;;8.77;3.53;;;;;;;;;;5050683;28;20384;-74
2022/01/01 06:23:30;;;;;;;7.03;2.75;;;;;;;;;;5052080;28;20672;-74
2022/01/01 06:25:55;;;;;;;8.70;3.45;;;;;;;;;;5052354;28;20033;-74
2022/01/01 06:28:21;;;;;;;5.80;3.35;;;;;;;;;;5051981;28;20032;-74
2022/01/01 06:30:46;;;;;;;5.07;2.97;;;;;;;;;;5051990;28;20592;-74
2022/01/01 06:33:14;;;;;;;5.93;2.63;;;;;;;;;;5052031;28;20455;-75
2022/01/01 06:35:41;;;;;;;4.55;2.60;;;;;;;;;;5049606;28;20512;-74
2022/01/01 06:38:08;;;;;;;4.38;2.95;;;;;;;;;;5046750;28;20036;-75
2022/01/01 06:40:34;;;;;;;4.03;3.05;;;;;;;;;;5049988;28;20078;-74
2022/01/01 06:43:00;;;;;;;6.13;3.20;;;;;;;;;;5050291;28;20029;-74
2022/01/01 06:45:25;;;;;;;7.03;3.22;;;;;;;;;;5049870;28;20032;-74
2022/01/01 06:47:51;;;;;;;5.68;2.67;;;;;;;;;;5051674;28;20135;-74
2022/01/01 06:50:16;;;;;;;5.68;3.50;;;;;;;;;;5051299;28;20056;-74
2022/01/01 06:52:44;;;;;;;5.38;2.83;;;;;;;;;;5050148;28;20340;-74
2022/01/01 06:55:11;;;;;;;6.05;3.03;;;;;;;;;;5050884;28;20017;-74
2022/01/01 06:57:37;;;;;;;4.97;2.78;;;;;;;;;;5051529;28;20040;-74
2022/01/01 07:00:04;;;;;;;5.57;2.92;;;;;;;;;;5050165;28;20735;-74
2022/01/01 07:02:29;;;;;;;6.85;3.00;;;;;;;;;;5049926;28;20056;-72
2022/01/01 07:04:55;;;;;;;4.45;3.00;;;;;;;;;;5051018;28;20064;-74
2022/01/01 07:07:20;;;;;;;7.63;3.65;;;;;;;;;;5050988;28;20060;-74
2022/01/01 07:09:46;;;;;;;5.60;3.15;;;;;;;;;;5050878;28;20036;-73
2022/01/01 07:12:11;;;;;;;5.18;2.70;;;;;;;;;;5051222;28;20067;-75
2022/01/01 07:14:37;;;;;;;4.55;2.83;;;;;;;;;;5044574;28;20033;-75
2022/01/01 07:17:03;;;;;;;5.00;2.92;;;;;;;;;;5033145;28;20044;-75
2022/01/01 07:19:28;;;;;;;4.00;2.70;;;;;;;;;;5049661;28;20033;-76
2022/01/01 07:21:56;;;;;;;4.38;2.40;;;;;;;;;;5046468;28;20057;-75
2022/01/01 07:24:21;;;;;;;5.82;2.45;;;;;;;;;;5049219;28;20065;-74
2022/01/01 07:26:47;;;;;;;5.65;2.60;;;;;;;;;;5048978;28;20456;-73
2022/01/01 07:29:12;;;;;;;5.00;2.58;;;;;;;;;;5051148;28;20362;-74
2022/01/01 07:31:38;;;;;;;4.95;3.05;;;;;;;;;;5049479;28;20431;-74
2022/01/01 07:34:03;;;;;;;5.57;3.05;;;;;;;;;;5049258;28;20115;-75
2022/01/01 07:36:28;;;;;;;6.07;2.85;;;;;;;;;;5050751;28;20053;-74
2022/01/01 07:38:54;;;;;;;4.65;2.90;;;;;;;;;;5050425;28;20047;-74
2022/01/01 07:41:19;;;;;;;4.35;2.95;;;;;;;;;;5049273;28;20079;-75
2022/01/01 07:43:45;;;;;;;4.30;2.75;;;;;;;;;;5048597;28;20469;-75
2022/01/01 07:46:10;;;;;;;5.72;2.78;;;;;;;;;;5050316;28;20521;-75
2022/01/01 07:48:36;;;;;;;5.07;3.00;;;;;;;;;;5049096;28;20426;-74
2022/01/01 07:51:01;;;;;;;6.00;3.08;;;;;;;;;;5049220;28;20078;-74
2022/01/01 07:53:28;;;;;;;4.00;2.70;;;;;;;;;;5049945;28;20481;-75
2022/01/01 07:55:54;;;;;;;7.18;3.13;;;;;;;;;;5049931;28;20083;-75
2022/01/01 07:58:19;;;;;;;5.25;2.88;;;;;;;;;;5050574;28;20044;-74
2022/01/01 08:00:45;;;;;;;3.67;2.80;;;;;;;;;;5051114;28;20033;-74
2022/01/01 08:03:11;;;;;;;4.60;2.78;;;;;;;;;;5051646;28;20024;-74
2022/01/01 08:05:37;;;;;;;4.43;2.53;;;;;;;;;;5052307;28;20032;-75
2022/01/01 08:08:04;;;;;;;5.07;2.75;;;;;;;;;;5050557;28;20045;-75
2022/01/01 08:10:30;;;;;;;4.63;3.03;;;;;;;;;;5050414;28;20147;-75
2022/01/01 08:12:55;;;;;;;7.57;3.50;;;;;;;;;;5048636;28;20400;-74
2022/01/01 08:15:21;;;;;;;5.15;2.97;;;;;;;;;;5048019;28;20025;-74
2022/01/01 08:17:47;;;;;;;4.18;2.90;;;;;;;;;;5031575;28;20091;-74
2022/01/01 08:20:12;;;;;;;6.15;3.30;;;;;;;;;;5050080;28;20112;-74
2022/01/01 08:22:38;;;;;;;5.25;3.20;;;;;;;;;;5048629;28;20039;-75
2022/01/01 08:25:04;;;;;;;12.57;3.20;;;;;;;;;;5047846;28;20069;-74
2022/01/01 08:27:30;;;;;;;6.70;3.03;;;;;;;;;;5048764;28;20029;-75
2022/01/01 08:29:55;;;;;;;4.75;3.00;;;;;;;;;;5050052;28;20086;-74
2022/01/01 08:32:21;;;;;;;5.63;3.40;;;;;;;;;;5049686;28;20481;-74
2022/01/01 08:34:46;;;;;;;6.53;2.78;;;;;;;;;;5047347;28;20029;-74
2022/01/01 08:37:12;;;;;;;7.88;3.42;;;;;;;;;;5048224;28;20418;-75
2022/01/01 08:39:38;;;;;;;5.65;3.38;;;;;;;;;;5048027;28;20028;-75
2022/01/01 08:42:05;;;;;;;5.25;3.45;;;;;;;;;;5047694;28;20673;-74
2022/01/01 08:44:31;;;;;;;6.10;3.53;;;;;;;;;;5047856;28;20067;-73
2022/01/01 08:46:57;;;;;;;7.55;3.67;;;;;;;;;;5049130;28;20060;-74
2022/01/01 08:49:22;;;;;;;5.22;3.17;;;;;;;;;;5048632;28;20036;-74
2022/01/01 08:51:48;;;;;;;7.13;3.75;;;;;;;;;;5048782;28;20485;-75
2022/01/01 08:54:14;;;;;;;6.90;3.78;;;;;;;;;;5048658;28;20543;-73
2022/01/01 08:56:41;;;;;;;9.10;3.47;;;;;;;;;;5048871;28;20024;-75
2022/01/01 08:59:06;;;;;;;5.18;3.35;;;;;;;;;;5049539;28;20106;-74
2022/01/01 09:01:32;;;;;;;5.68;3.05;;;;;;;;;;5047769;28;20041;-74
2022/01/01 09:03:58;;;;;;;5.05;3.58;;;;;;;;;;5047227;28;20036;-75
2022/01/01 09:06:25;;;;;;;4.88;3.50;;;;;;;;;;5049103;28;20033;-75
2022/01/01 09:08:51;;;;;;;6.78;3.88;;;;;;;;;;5048903;28;20036;-75
2022/01/01 09:11:16;;;;;;;5.43;2.92;;;;;;;;;;5047599;28;20032;-74
2022/01/01 09:13:43;;;;;;;12.75;3.75;;;;;;;;;;5048452;28;20037;-75
2022/01/01 09:16:19;;;;;;;4.82;3.30;;;;;;;;;;5048814;28;20078;-75
2022/01/01 09:18:46;;;;;;;4.38;2.65;;;;;;;;;;5047256;28;20036;-75
2022/01/01 09:21:13;;;;;;;4.68;3.40;;;;;;;;;;5048427;28;20085;-75
2022/01/01 09:23:39;;;;;;;4.95;3.08;;;;;;;;;;5048080;28;20029;-73
2022/01/01 09:26:05;;;;;;;5.43;2.83;;;;;;;;;;5048400;28;20060;-75
2022/01/01 09:28:32;;;;;;;5.20;3.10;;;;;;;;;;5048692;28;20473;-75
2022/01/01 09:30:59;;;;;;;7.13;3.30;;;;;;;;;;5047248;28;20040;-74
2022/01/01 09:33:29;;;;;;;5.32;3.25;;;;;;;;;;5048294;28;20461;-74
2022/01/01 09:35:56;;;;;;;5.82;3.00;;;;;;;;;;5047034;28;20427;-75
2022/01/01 09:38:21;;;;;;;5.68;3.30;;;;;;;;;;5047165;28;20475;-74
2022/01/01 09:40:48;;;;;;;5.28;3.00;;;;;;;;;;5047218;28;20115;-74
2022/01/01 09:43:14;;;;;;;4.82;2.67;;;;;;;;;;5048435;28;20036;-75
2022/01/01 09:45:43;;;;;;;5.97;2.90;;;;;;;;;;5047904;28;20062;-75
2022/01/01 09:48:08;;;;;;;4.80;3.00;;;;;;;;;;5048668;28;20044;-74
2022/01/01 09:50:35;;;;;;;6.75;3.60;;;;;;;;;;5048782;28;20453;-74
2022/01/01 09:53:01;;;;;;;4.88;3.20;;;;;;;;;;5049370;28;20028;-74
2022/01/01 09:55:27;;;;;;;6.28;3.17;;;;;;;;;;5051009;28;20027;-75
2022/01/01 09:57:52;;;;;;;5.57;3.33;;;;;;;;;;5053095;28;20037;-74
2022/01/01 10:00:18;;;;;;;8.63;3.22;;;;;;;;;;5052824;28;20404;-74
2022/01/01 10:02:43;;;;;;;9.45;4.22;;;;;;;;;;5051143;28;20086;-74
2022/01/01 10:05:09;;;;;;;4.05;2.70;;;;;;;;;;5051790;28;20036;-75
2022/01/01 10:07:35;;;;;;;5.53;3.60;;;;;;;;;;5051030;28;20037;-74
2022/01/01 10:10:25;;;;;;;6.15;3.22;;;;;;;;;;5050655;28;20039;-74
2022/01/01 10:12:50;;;;;;;6.97;2.90;;;;;;;;;;5051826;28;20472;-74
2022/01/01 10:15:17;;;;;;;6.43;3.15;;;;;;;;;;5050149;28;20060;-75
2022/01/01 10:17:43;;;;;;;4.60;2.55;;;;;;;;;;5051131;28;20348;-75
2022/01/01 10:20:09;;;;;;;8.38;2.70;;;;;;;;;;5050928;28;20025;-74
2022/01/01 10:22:35;;;;;;;5.35;2.97;;;;;;;;;;5050553;28;20024;-74
2022/01/01 10:28:01;;;;;;;6.05;2.83;;;;;;;;;;5052549;28;20046;-75
2022/01/01 10:30:40;;;;;;;5.88;2.95;;;;;;;;;;5052058;28;20078;-75
2022/01/01 10:33:14;;;;;;;6.40;3.70;;;;;;;;;;5051162;28;20110;-74
2022/01/01 10:35:50;;;;;;;4.05;2.97;;;;;;;;;;5049928;28;20041;-74
2022/01/01 10:38:17;;;;;;;9.18;3.25;;;;;;;;;;5051691;28;20025;-74
2022/01/01 10:40:44;;;;;;;7.57;2.65;;;;;;;;;;5050473;28;20059;-74
2022/01/01 10:43:10;;;;;;;6.40;3.10;;;;;;;;;;5050080;28;20421;-75
2022/01/01 10:45:37;;;;;;;5.72;4.38;;;;;;;;;;5051009;28;20435;-74
2022/01/01 10:51:07;;;;;;;6.63;3.13;;;;;;;;;;5039493;28;20480;-75
2022/01/01 10:53:34;;;;;;;7.00;3.40;;;;;;;;;;5050805;28;20029;-74
2022/01/01 10:56:02;;;;;;;4.75;3.05;;;;;;;;;;5051632;28;20040;-74
2022/01/01 10:58:31;;;;;;;8.23;3.55;;;;;;;;;;5051737;28;20037;-74
2022/01/01 11:01:07;;;;;;;4.97;3.13;;;;;;;;;;5051519;28;20619;-74
2022/01/01 11:03:37;;;;;;;6.97;3.47;;;;;;;;;;5050655;28;20093;-74
2022/01/01 11:06:15;;;;;;;7.15;3.20;;;;;;;;;;5049655;28;20036;-73
2022/01/01 11:08:43;;;;;;;6.53;3.40;;;;;;;;;;5052988;28;20035;-74
2022/01/01 11:11:10;;;;;;;9.85;3.58;;;;;;;;;;5050864;28;20028;-74
2022/01/01 11:13:37;;;;;;;8.18;3.38;;;;;;;;;;5051882;28;20025;-74
2022/01/01 11:16:04;;;;;;;8.25;3.20;;;;;;;;;;5050637;28;20031;-73
2022/01/01 11:18:31;;;;;;;4.78;2.85;;;;;;;;;;5050040;28;20477;-74
2022/01/01 11:20:59;;;;;;;8.20;3.42;;;;;;;;;;5050115;28;20032;-73
2022/01/01 11:23:26;;;;;;;7.60;3.22;;;;;;;;;;5032866;28;20040;-74
2022/01/01 11:25:54;;;;;;;6.70;3.03;;;;;;;;;;5045955;28;20030;-75
2022/01/01 11:28:20;;;;;;;7.10;3.33;;;;;;;;;;5047230;28;20027;-75
2022/01/01 11:30:46;;;;;;;5.05;3.03;;;;;;;;;;5050902;28;20114;-75
2022/01/01 11:33:15;;;;;;;4.55;3.22;;;;;;;;;;5050774;28;20333;-75
2022/01/01 11:35:44;;;;;;;4.97;3.13;;;;;;;;;;5048308;28;20045;-74
2022/01/01 11:38:12;;;;;;;9.23;3.50;;;;;;;;;;5048846;28;20029;-74
2022/01/01 11:41:04;;;;;;;5.88;3.30;;;;;;;;;;5050388;28;20377;-74
2022/01/01 11:43:53;;;;;;;6.88;3.10;;;;;;;;;;5048401;28;20025;-76
2022/01/01 11:46:18;;;;;;;6.32;3.22;;;;;;;;;;5050210;28;20513;-75
2022/01/01 11:48:56;;;;;;;3.33;2.88;;;;;;;;;;5050261;28;20067;-74
2022/01/01 11:51:38;;;;;;;4.88;3.10;;;;;;;;;;5050344;28;20118;-75
2022/01/01 11:54:22;;;;;;;6.10;3.03;;;;;;;;;;5043677;28;20531;-74
2022/01/01 11:56:50;;;;;;;7.28;3.45;;;;;;;;;;5050855;28;20052;-75
2022/01/01 11:59:22;;;;;;;6.03;3.25;;;;;;;;;;5048051;28;20108;-74
2022/01/01 12:01:48;;;;;;;4.72;2.92;;;;;;;;;;5049174;28;20072;-76
2022/01/01 12:04:41;;;;;;;7.18;3.58;;;;;;;;;;5049492;28;20035;-76
2022/01/01 12:07:16;;;;;;;11.45;3.00;;;;;;;;;;5049621;28;20428;-75
2022/01/01 12:10:04;;;;;;;4.95;3.30;;;;;;;;;;5045846;28;20045;-75
2022/01/01 12:13:02;;;;;;;5.78;3.17;;;;;;;;;;5048810;28;20021;-75
2022/01/01 12:15:31;;;;;;;8.23;3.50;;;;;;;;;;5047314;28;20016;-75
2022/01/01 12:18:01;;;;;;;7.03;3.38;;;;;;;;;;5049214;28;20162;-75
2022/01/01 12:20:54;;;;;;;6.72;3.42;;;;;;;;;;5048531;28;20060;-74
2022/01/01 12:23:21;;;;;;;12.27;4.00;;;;;;;;;;5048259;28;20401;-75
2022/01/01 12:25:49;;;;;;;5.45;3.38;;;;;;;;;;5048992;28;20028;-74
2022/01/01 12:28:16;;;;;;;4.97;3.03;;;;;;;;;;5048407;28;20082;-74
2022/01/01 12:30:54;;;;;;;9.15;3.53;;;;;;;;;;5049422;28;20507;-75
2022/01/01 12:33:42;;;;;;;5.68;3.17;;;;;;;;;;5049521;28;20020;-75
2022/01/01 12:36:12;;;;;;;7.18;3.33;;;;;;;;;;5048829;28;20131;-75
2022/01/01 12:38:41;;;;;;;5.47;3.28;;;;;;;;;;5040409;28;20021;-73
2022/01/01 12:41:15;;;;;;;6.07;2.90;;;;;;;;;;5048053;28;20025;-74
2022/01/01 12:43:45;;;;;;;6.00;2.80;;;;;;;;;;5049151;28;20522;-75
2022/01/01 12:46:13;;;;;;;5.88;3.53;;;;;;;;;;5049305;28;20108;-75
2022/01/01 12:48:39;;;;;;;7.80;3.85;;;;;;;;;;5049557;28;20108;-75
2022/01/01 12:51:09;;;;;;;5.32;3.03;;;;;;;;;;5049449;28;20108;-72
2022/01/01 12:53:38;;;;;;;10.00;3.95;;;;;;;;;;5047402;28;20417;-75
2022/01/01 12:56:16;;;;;;;6.28;3.47;;;;;;;;;;5047541;28;20107;-75
2022/01/01 12:58:44;;;;;;;6.32;3.60;;;;;;;;;;5049499;28;20114;-75
2022/01/01 13:01:22;;;;;;;10.00;3.55;;;;;;;;;;5047873;28;20032;-74
2022/01/01 13:03:57;;;;;;;6.53;3.47;;;;;;;;;;5047281;28;20106;-74
2022/01/01 13:06:36;;;;;;;6.38;3.15;;;;;;;;;;5045874;28;20029;-75
2022/01/01 13:09:07;;;;;;;6.40;3.35;;;;;;;;;;5048325;28;20037;-75
2022/01/01 13:11:33;;;;;;;;;;;;;;;;;;5051179;28;20029;-75
2022/01/01 13:13:59;;;;;;;6.63;3.03;;;;;;;;;;5049547;28;19962;-74
2022/01/01 13:16:26;;;;;;;5.38;2.85;;;;;;;;;;5030834;28;20048;-74
2022/01/01 13:18:52;;;;;;;7.47;4.05;;;;;;;;;;5048659;28;20025;-75
2022/01/01 13:21:18;;;;;;;6.40;3.15;;;;;;;;;;5048026;28;20082;-75
2022/01/01 13:23:44;;;;;;;8.15;4.18;;;;;;;;;;5046251;28;20033;-75
2022/01/01 13:26:10;;;;;;;11.32;4.45;;;;;;;;;;5048376;28;20095;-75
2022/01/01 13:28:36;;;;;;;6.78;3.50;;;;;;;;;;5047272;28;20029;-75
2022/01/01 13:31:04;;;;;;;7.15;3.42;;;;;;;;;;5048593;28;20508;-76
2022/01/01 13:33:31;;;;;;;8.88;3.78;;;;;;;;;;5048171;28;20417;-75
2022/01/01 13:35:58;;;;;;;8.77;3.50;;;;;;;;;;5046737;28;20037;-75
2022/01/01 13:38:25;;;;;;;7.15;3.53;;;;;;;;;;5043917;28;20025;-76
2022/01/01 13:40:54;;;;;;;7.85;3.15;;;;;;;;;;5046985;28;20039;-74
2022/01/01 13:43:25;;;;;;;10.20;3.50;;;;;;;;;;5031161;28;20083;-74
2022/01/01 13:46:10;;;;;;;6.90;3.20;;;;;;;;;;5044031;28;20032;-74
2022/01/01 13:48:57;;;;;;;14.13;3.75;;;;;;;;;;5047100;28;20036;-74
2022/01/01 13:51:28;;;;;;;5.78;2.80;;;;;;;;;;5047783;28;20029;-74
2022/01/01 13:54:08;;;;;;;10.75;3.50;;;;;;;;;;5029797;28;20047;-74
2022/01/01 13:56:36;;;;;;;9.20;3.42;;;;;;;;;;5046350;28;20482;-74
2022/01/01 13:59:02;;;;;;;7.78;3.67;;;;;;;;;;5046903;28;20057;-74
2022/01/01 14:01:28;;;;;;;9.15;3.13;;;;;;;;;;5045441;28;20449;-76
2022/01/01 14:03:55;;;;;;;5.80;2.83;;;;;;;;;;5045387;28;20041;-75
2022/01/01 14:06:24;;;;;;;4.57;3.15;;;;;;;;;;5047179;28;20070;-74
2022/01/01 14:08:59;;;;;;;7.72;2.47;;;;;;;;;;5047358;28;20068;-75
2022/01/01 14:11:31;;;;;;;9.15;3.10;;;;;;;;;;5048464;28;20029;-74
2022/01/01 14:14:11;;;;;;;8.15;2.78;;;;;;;;;;5042551;28;20037;-75
2022/01/01 14:16:49;;;;;;;17.30;3.80;;;;;;;;;;5047354;28;20029;-76
2022/01/01 14:19:19;;;;;;;11.70;2.85;;;;;;;;;;5048290;28;20132;-74
2022/01/01 14:21:46;;;;;;;7.70;3.22;;;;;;;;;;5049486;28;20035;-73
2022/01/01 14:24:16;;;;;;;5.82;2.80;;;;;;;;;;5075946;28;20039;-75
2022/01/01 14:26:45;;;;;;;7.50;3.33;;;;;;;;;;5046956;28;20064;-76
2022/01/01 14:29:16;;;;;;;8.23;3.47;;;;;;;;;;5048142;28;20103;-74
2022/01/01 14:31:42;;;;;;;14.20;3.63;;;;;;;;;;5045214;28;20513;-79
2022/01/01 14:34:16;;;;;;;9.00;3.20;;;;;;;;;;5046252;28;20039;-79
2022/01/01 14:36:52;;;;;;;10.40;4.05;;;;;;;;;;5046108;28;20049;-79
2022/01/01 14:39:19;;;;;;;6.57;3.10;;;;;;;;;;5043141;28;20059;-79
2022/01/01 14:41:45;;;;;;;8.77;3.70;;;;;;;;;;5051578;28;20094;-80
2022/01/01 14:44:11;;;;;;;7.88;3.90;;;;;;;;;;5049935;28;20118;-79
2022/01/01 14:46:43;;;;;;;6.82;3.50;;;;;;;;;;5052111;28;20497;-79
2022/01/01 14:49:26;;;;;;;9.68;3.45;;;;;;;;;;5051313;28;20021;-78
2022/01/01 14:52:14;;;;;;;10.82;3.40;;;;;;;;;;5052343;28;20048;-79
2022/01/01 14:54:59;;;;;;;6.65;3.95;;;;;;;;;;5054248;28;20041;-77